createdAt,value
2023-04-11T00:01:55.420Z,69.21
2023-04-11T00:04:47.988Z,69.06
2023-04-11T00:07:36.657Z,69.03
2023-04-11T00:10:28.933Z,68.77
2023-04-11T00:13:11.048Z,68.55
2023-04-11T00:15:55.382Z,68.67
2023-04-11T00:18:47.552Z,68.78
2023-04-11T00:21:40.518Z,68.76
2023-04-11T00:24:32.596Z,68.91
2023-04-11T00:27:24.624Z,68.56
2023-04-11T00:30:08.236Z,68.54
2023-04-11T00:32:57.650Z,68.60
2023-04-11T00:35:49.626Z,68.82
2023-04-11T00:38:31.973Z,68.88
2023-04-11T00:41:24.263Z,68.72
2023-04-11T00:44:16.309Z,68.61
2023-04-11T00:47:09.839Z,68.43
2023-04-11T00:50:01.944Z,68.76
2023-04-11T00:52:55.598Z,68.83
2023-04-11T00:55:36.618Z,69.13
2023-04-11T00:58:29.021Z,69.38
2023-04-11T01:01:25.017Z,69.42
2023-04-11T01:04:17.827Z,69.43
2023-04-11T01:07:11.542Z,69.65
2023-04-11T01:09:44.105Z,69.27
2023-04-11T01:12:36.852Z,69.37
2023-04-11T01:15:28.996Z,69.31
2023-04-11T01:18:21.035Z,69.14
2023-04-11T01:21:13.032Z,69.03
2023-04-11T01:24:05.290Z,68.90
2023-04-11T01:26:58.013Z,68.76
2023-04-11T01:29:49.980Z,69.20
2023-04-11T01:32:42.005Z,69.41
2023-04-11T01:35:19.832Z,69.51
2023-04-11T01:38:03.335Z,69.90
2023-04-11T01:40:56.795Z,69.85
2023-04-11T01:43:49.411Z,70.09
2023-04-11T01:46:41.990Z,70.15
2023-04-11T01:49:34.234Z,70.28
2023-04-11T01:52:26.398Z,70.44
2023-04-11T01:55:18.837Z,70.65
2023-04-11T01:58:10.892Z,70.65
2023-04-11T02:00:47.831Z,70.62
2023-04-11T02:03:39.995Z,70.78
2023-04-11T02:06:32.099Z,70.79
2023-04-11T02:09:24.039Z,70.96
2023-04-11T02:11:59.605Z,70.93
2023-04-11T02:14:51.658Z,71.24
2023-04-11T02:17:45.429Z,71.15
2023-04-11T02:20:28.987Z,71.00
2023-04-11T02:23:21.412Z,71.26
2023-04-11T02:26:14.189Z,71.35
2023-04-11T02:29:06.130Z,71.46
2023-04-11T02:31:58.207Z,71.30
2023-04-11T02:34:50.658Z,71.33
2023-04-11T02:37:42.786Z,71.71
2023-04-11T02:40:19.576Z,71.67
2023-04-11T02:43:11.515Z,71.98
2023-04-11T02:46:12.271Z,71.81
2023-04-11T02:49:05.636Z,71.99
2023-04-11T02:51:57.635Z,72.10
2023-04-11T02:54:49.742Z,72.32
2023-04-11T02:57:41.686Z,72.00
2023-04-11T03:00:33.903Z,71.99
2023-04-11T03:03:26.557Z,72.20
2023-04-11T03:05:58.394Z,72.46
2023-04-11T03:08:40.218Z,72.53
2023-04-11T03:11:32.224Z,72.66
2023-04-11T03:14:24.235Z,72.92
2023-04-11T03:17:16.177Z,73.12
2023-04-11T03:20:11.713Z,73.19
2023-04-11T03:23:03.658Z,73.18
2023-04-11T03:25:38.896Z,73.28
2023-04-11T03:28:16.260Z,73.35
2023-04-11T03:31:09.070Z,73.26
2023-04-11T03:34:01.058Z,73.14
2023-04-11T03:36:53.048Z,73.09
2023-04-11T03:39:45.120Z,73.27
2023-04-11T03:42:37.622Z,73.51
2023-04-11T03:45:29.721Z,73.56
2023-04-11T03:48:19.972Z,73.63
2023-04-11T03:50:57.979Z,73.64
2023-04-11T03:53:52.271Z,73.64
2023-04-11T03:56:33.008Z,73.81
2023-04-11T03:59:25.113Z,73.91
2023-04-11T04:02:17.343Z,73.95
2023-04-11T04:05:10.127Z,73.70
2023-04-11T04:08:02.213Z,73.83
2023-04-11T04:10:54.159Z,73.91
2023-04-11T04:13:46.206Z,73.74
2023-04-11T04:16:38.253Z,73.79
2023-04-11T04:19:30.305Z,73.86
2023-04-11T04:22:23.581Z,73.76
2023-04-11T04:25:16.924Z,73.69
2023-04-11T04:27:53.996Z,73.65
2023-04-11T04:30:50.118Z,73.08
2023-04-11T04:33:42.823Z,73.49
2023-04-11T04:36:45.950Z,73.67
2023-04-11T04:39:38.129Z,73.53
2023-04-11T04:42:31.349Z,73.17
2023-04-11T04:45:23.526Z,73.30
2023-04-11T04:48:17.169Z,73.77
2023-04-11T04:51:10.337Z,73.71
2023-04-11T04:53:46.226Z,73.58
2023-04-11T04:56:38.204Z,73.54
2023-04-11T04:59:30.562Z,73.88
2023-04-11T05:02:23.222Z,73.80
2023-04-11T05:04:58.107Z,73.87
2023-04-11T05:07:50.099Z,74.04
2023-04-11T05:10:42.076Z,74.23
2023-04-11T05:13:36.440Z,73.96
2023-04-11T05:16:28.591Z,74.10
2023-04-11T05:19:20.723Z,73.67
2023-04-11T05:22:13.047Z,73.38
2023-04-11T05:25:05.436Z,73.56
2023-04-11T05:27:57.474Z,73.82
2023-04-11T05:30:31.974Z,73.71
2023-04-11T05:33:25.777Z,73.60
2023-04-11T05:36:07.652Z,73.98
2023-04-11T05:38:59.738Z,73.93
2023-04-11T05:41:51.782Z,73.73
2023-04-11T05:44:43.871Z,73.82
2023-04-11T05:47:36.087Z,74.15
2023-04-11T05:50:28.490Z,73.53
2023-04-11T05:53:21.079Z,73.58
2023-04-11T05:56:13.185Z,73.16
2023-04-11T05:58:50.606Z,73.13
2023-04-11T06:01:33.078Z,73.28
2023-04-11T06:04:25.300Z,74.49
2023-04-11T06:07:17.707Z,76.16
2023-04-11T06:10:11.470Z,76.47
2023-04-11T06:13:03.548Z,74.50
2023-04-11T06:15:55.811Z,71.61
2023-04-11T06:18:47.893Z,69.61
2023-04-11T06:21:39.779Z,67.66
2023-04-11T06:24:41.770Z,65.61
2023-04-11T06:27:34.009Z,63.02
2023-04-11T06:30:17.659Z,61.79
2023-04-11T06:32:53.133Z,60.75
2023-04-11T06:35:28.301Z,60.38
2023-04-11T06:38:20.837Z,59.51
2023-04-11T06:41:12.873Z,59.83
2023-04-11T06:44:04.805Z,60.02
2023-04-11T06:46:57.253Z,59.98
2023-04-11T06:49:31.791Z,60.36
2023-04-11T06:52:25.019Z,60.55
2023-04-11T06:55:18.706Z,61.00
2023-04-11T06:58:10.714Z,63.15
2023-04-11T07:00:48.090Z,62.23
2023-04-11T07:03:40.153Z,61.59
2023-04-11T07:06:32.610Z,61.80
2023-04-11T07:09:13.512Z,62.21
2023-04-11T07:12:06.239Z,63.25
2023-04-11T07:14:54.391Z,63.17
2023-04-11T07:17:50.233Z,63.41
2023-04-11T07:20:43.415Z,63.73
2023-04-11T07:23:33.130Z,63.93
2023-04-11T07:26:27.219Z,64.72
2023-04-11T07:29:19.208Z,64.51
2023-04-11T07:32:11.321Z,64.72
2023-04-11T07:35:03.358Z,64.70
2023-04-11T07:37:57.422Z,63.86
2023-04-11T07:40:49.620Z,63.63
2023-04-11T07:43:21.661Z,63.67
2023-04-11T07:46:03.299Z,63.01
2023-04-11T07:48:37.785Z,62.97
2023-04-11T07:51:10.000Z,62.83
2023-04-11T07:54:02.125Z,63.05
2023-04-11T07:56:54.096Z,62.48
2023-04-11T07:59:29.131Z,62.76
2023-04-11T08:02:09.991Z,62.93
2023-04-11T08:05:02.199Z,62.34
2023-04-11T08:07:36.827Z,61.91
2023-04-11T08:10:17.611Z,61.59
2023-04-11T08:13:09.632Z,60.55
2023-04-11T08:16:01.635Z,60.50
2023-04-11T08:18:53.598Z,60.10
2023-04-11T08:21:45.850Z,58.87
2023-04-11T08:24:27.906Z,58.95
2023-04-11T08:27:20.125Z,59.36
2023-04-11T08:30:13.526Z,59.52
2023-04-11T08:33:07.097Z,59.51
2023-04-11T08:35:49.231Z,58.91
2023-04-11T08:38:41.913Z,58.56
2023-04-11T08:41:36.501Z,57.58
2023-04-11T08:44:28.628Z,56.31
2023-04-11T08:47:20.710Z,56.23
2023-04-11T08:50:13.287Z,56.49
2023-04-11T08:52:56.029Z,56.27
2023-04-11T08:55:49.098Z,54.14
2023-04-11T08:58:43.511Z,52.39
2023-04-11T09:01:33.218Z,49.91
2023-04-11T09:04:11.438Z,48.81
2023-04-11T09:07:00.797Z,46.09
2023-04-11T09:09:39.329Z,45.46
2023-04-11T09:12:32.355Z,43.41
2023-04-11T09:15:27.297Z,42.13
2023-04-11T09:18:39.464Z,42.32
2023-04-11T09:21:31.660Z,42.24
2023-04-11T09:24:25.628Z,42.12
2023-04-11T09:27:19.709Z,42.47
2023-04-11T09:29:54.611Z,42.35
2023-04-11T09:32:38.082Z,41.29
2023-04-11T09:35:31.548Z,40.89
2023-04-11T09:38:34.293Z,41.32
2023-04-11T09:41:34.251Z,41.48
2023-04-11T09:44:39.240Z,42.20
2023-04-11T09:47:35.670Z,42.42
2023-04-11T09:50:28.498Z,42.00
2023-04-11T09:53:20.905Z,42.53
2023-04-11T09:56:13.913Z,42.07
2023-04-11T09:59:06.271Z,40.71
2023-04-11T10:01:59.785Z,40.98
2023-04-11T10:04:53.401Z,39.55
2023-04-11T10:07:29.980Z,38.93
2023-04-11T10:10:02.045Z,37.94
2023-04-11T10:12:45.022Z,36.93
2023-04-11T10:15:37.000Z,36.37
2023-04-11T10:18:29.036Z,36.05
2023-04-11T10:21:42.272Z,35.57
2023-04-11T10:24:34.259Z,34.78
2023-04-11T10:27:48.946Z,34.80
2023-04-11T10:31:01.691Z,35.07
2023-04-11T10:34:21.830Z,34.54
2023-04-11T10:37:08.949Z,33.79
2023-04-11T10:40:13.603Z,33.16
2023-04-11T10:43:25.831Z,33.72
2023-04-11T10:46:22.562Z,33.84
2023-04-11T10:49:37.586Z,33.88
2023-04-11T10:52:29.574Z,33.89
2023-04-11T10:55:18.085Z,34.62
2023-04-11T10:58:11.390Z,34.82
2023-04-11T11:01:26.650Z,34.28
2023-04-11T11:04:35.335Z,34.21
2023-04-11T11:07:28.667Z,33.15
2023-04-11T11:10:42.730Z,33.00
2023-04-11T11:13:43.737Z,33.29
2023-04-11T11:16:33.313Z,32.72
2023-04-11T11:19:16.645Z,33.02
2023-04-11T11:22:17.338Z,33.14
2023-04-11T11:25:13.264Z,32.71
2023-04-11T11:28:08.413Z,33.71
2023-04-11T11:31:00.718Z,33.48
2023-04-11T11:33:53.954Z,34.03
2023-04-11T11:36:47.645Z,34.86
2023-04-11T11:39:40.134Z,34.31
2023-04-11T11:42:28.123Z,34.85
2023-04-11T11:45:21.323Z,35.04
2023-04-11T11:48:23.466Z,34.90
2023-04-11T11:51:11.976Z,35.03
2023-04-11T11:54:09.656Z,35.20
2023-04-11T11:57:01.757Z,35.08
2023-04-11T11:59:58.123Z,35.02
2023-04-11T12:02:52.819Z,35.13
2023-04-11T12:05:30.141Z,35.29
2023-04-11T12:08:25.708Z,35.39
2023-04-11T12:11:16.788Z,35.25
2023-04-11T12:14:08.965Z,35.19
2023-04-11T12:17:01.169Z,35.31
2023-04-11T12:19:57.612Z,34.98
2023-04-11T12:22:49.934Z,34.70
2023-04-11T12:25:42.367Z,35.22
2023-04-11T12:28:34.413Z,35.03
2023-04-11T12:31:06.456Z,34.82
2023-04-11T12:33:58.484Z,34.91
2023-04-11T12:36:50.714Z,35.01
2023-04-11T12:39:28.024Z,35.22
2023-04-11T12:42:03.046Z,34.95
2023-04-11T12:44:55.569Z,34.74
2023-04-11T12:50:34.852Z,34.45
2023-04-11T12:53:26.941Z,34.76
2023-04-11T12:56:18.927Z,34.75
2023-04-11T12:59:11.083Z,35.00
2023-04-11T13:02:03.166Z,35.59
2023-04-11T13:04:55.581Z,35.36
2023-04-11T13:07:47.893Z,35.55
2023-04-11T13:10:30.972Z,35.48
2023-04-11T13:13:22.961Z,35.97
2023-04-11T13:16:15.077Z,36.25
2023-04-11T13:19:07.112Z,36.27
2023-04-11T13:21:59.151Z,35.93
2023-04-11T13:24:51.163Z,35.35
2023-04-11T13:27:43.536Z,34.98
2023-04-11T13:30:18.297Z,34.70
2023-04-11T13:33:10.318Z,35.06
2023-04-11T13:36:02.941Z,35.14
2023-04-11T13:38:57.143Z,35.27
2023-04-11T13:41:49.367Z,35.33
2023-04-11T13:44:41.402Z,35.62
2023-04-11T13:47:37.648Z,35.81
2023-04-11T13:50:21.886Z,35.58
2023-04-11T13:53:13.907Z,35.56
2023-04-11T13:56:06.302Z,35.42
2023-04-11T13:58:58.767Z,35.71
2023-04-11T14:01:41.535Z,35.62
2023-04-11T14:04:33.968Z,35.57
2023-04-11T14:07:26.040Z,35.40
2023-04-11T14:10:14.693Z,35.73
2023-04-11T14:13:06.754Z,35.91
2023-04-11T14:16:08.198Z,36.15
2023-04-11T14:18:46.646Z,36.75
2023-04-11T14:21:24.830Z,36.84
2023-04-11T14:24:16.887Z,37.18
2023-04-11T14:27:08.895Z,37.44
2023-04-11T14:30:00.935Z,37.75
2023-04-11T14:32:53.018Z,37.95
2023-04-11T14:35:47.045Z,38.03
2023-04-11T14:38:39.124Z,38.16
2023-04-11T14:41:31.151Z,38.46
2023-04-11T14:45:46.340Z,38.66
2023-04-11T14:48:38.309Z,38.63
2023-04-11T14:51:31.087Z,38.86
2023-04-11T14:54:14.189Z,39.11
2023-04-11T14:57:06.274Z,39.29
2023-04-11T15:00:01.695Z,39.44
2023-04-11T15:02:55.758Z,39.84
2023-04-11T15:05:47.930Z,40.10
2023-04-11T15:08:22.668Z,40.40
2023-04-11T15:11:03.332Z,40.89
2023-04-11T15:13:56.957Z,41.21
2023-04-11T15:16:49.069Z,41.47
2023-04-11T15:19:41.015Z,41.83
2023-04-11T15:22:33.090Z,42.21
2023-04-11T15:25:25.174Z,42.59
2023-04-11T15:28:17.091Z,42.90
2023-04-11T15:31:10.677Z,43.39
2023-04-11T15:34:04.094Z,43.95
2023-04-11T15:36:56.725Z,44.47
2023-04-11T15:39:31.569Z,44.89
2023-04-11T15:42:23.662Z,45.49
2023-04-11T15:45:16.042Z,45.99
2023-04-11T15:47:58.350Z,46.56
2023-04-11T15:50:50.807Z,47.03
2023-04-11T15:53:33.253Z,47.62
2023-04-11T15:56:25.498Z,48.07
2023-04-11T15:59:17.534Z,48.63
2023-04-11T16:02:09.571Z,49.07
2023-04-11T16:05:02.339Z,49.64
2023-04-11T16:07:37.111Z,49.92
2023-04-11T16:10:30.054Z,50.35
2023-04-11T16:13:22.206Z,50.80
2023-04-11T16:16:14.712Z,51.42
2023-04-11T16:19:06.880Z,52.02
2023-04-11T16:21:58.943Z,52.64
2023-04-11T16:24:51.534Z,53.11
2023-04-11T16:27:43.811Z,53.67
2023-04-11T16:30:18.405Z,53.65
2023-04-11T16:33:10.513Z,54.12
2023-04-11T16:36:02.930Z,54.47
2023-04-11T16:38:54.984Z,54.89
2023-04-11T16:41:47.384Z,55.12
2023-04-11T16:44:22.270Z,55.28
2023-04-11T16:47:14.341Z,55.75
2023-04-11T16:50:07.847Z,56.05
2023-04-11T16:52:59.819Z,56.35
2023-04-11T16:55:53.472Z,56.34
2023-04-11T16:58:45.962Z,56.44
2023-04-11T17:01:38.036Z,56.55
2023-04-11T17:04:30.599Z,56.73
2023-04-11T17:07:02.537Z,56.84
2023-04-11T17:09:49.819Z,57.01
2023-04-11T17:12:41.860Z,57.27
2023-04-11T17:15:29.305Z,57.37
2023-04-11T17:18:21.583Z,57.70
2023-04-11T17:21:13.916Z,58.05
2023-04-11T17:24:06.416Z,58.42
2023-04-11T17:26:59.360Z,58.65
2023-04-11T17:29:34.917Z,58.95
2023-04-11T17:32:15.287Z,59.21
2023-04-11T17:35:08.323Z,59.52
2023-04-11T17:38:00.685Z,59.75
2023-04-11T17:40:57.504Z,59.95
2023-04-11T17:43:41.582Z,60.06
2023-04-11T17:46:34.047Z,60.04
2023-04-11T17:49:27.383Z,60.20
2023-04-11T17:52:10.734Z,60.44
2023-04-11T17:55:03.514Z,60.52
2023-04-11T17:57:55.851Z,60.52
2023-04-11T18:00:31.941Z,60.41
2023-04-11T18:03:25.148Z,60.58
2023-04-11T18:06:15.415Z,60.64
2023-04-11T18:08:56.297Z,60.72
2023-04-11T18:11:48.426Z,60.78
2023-04-11T18:14:40.882Z,60.78
2023-04-11T18:17:33.442Z,60.86
2023-04-11T18:20:12.509Z,60.94
2023-04-11T18:22:51.446Z,61.11
2023-04-11T18:25:26.925Z,61.18
2023-04-11T18:28:19.261Z,61.16
2023-04-11T18:30:54.591Z,61.21
2023-04-11T18:33:59.667Z,61.33
2023-04-11T18:36:35.472Z,61.33
2023-04-11T18:39:27.770Z,61.40
2023-04-11T18:42:20.104Z,61.54
2023-04-11T18:45:00.780Z,61.54
2023-04-11T18:47:49.420Z,61.61
2023-04-11T18:50:43.025Z,61.76
2023-04-11T18:53:36.502Z,61.78
2023-04-11T18:56:11.968Z,61.79
2023-04-11T18:59:06.548Z,61.78
2023-04-11T19:02:00.410Z,61.87
2023-04-11T19:04:55.487Z,61.91
2023-04-11T19:07:36.751Z,62.15
2023-04-11T19:10:29.040Z,62.26
2023-04-11T19:13:04.476Z,62.23
2023-04-11T19:15:56.538Z,62.41
2023-04-11T19:18:48.538Z,62.29
2023-04-11T19:21:41.974Z,62.32
2023-04-11T19:24:33.947Z,62.53
2023-04-11T19:27:26.531Z,62.61
2023-04-11T19:30:18.563Z,62.75
2023-04-11T19:33:11.102Z,62.72
2023-04-11T19:35:48.517Z,62.80
2023-04-11T19:38:29.511Z,62.88
2023-04-11T19:41:21.846Z,63.08
2023-04-11T19:44:04.356Z,63.17
2023-04-11T19:46:46.015Z,63.23
2023-04-11T19:49:37.944Z,63.70
2023-04-11T19:52:30.385Z,63.97
2023-04-11T19:55:23.214Z,63.69
2023-04-11T19:58:15.854Z,63.67
2023-04-11T20:01:09.549Z,63.70
2023-04-11T20:04:02.343Z,63.69
2023-04-11T20:06:58.368Z,63.66
2023-04-11T20:09:51.424Z,63.65
2023-04-11T20:12:43.512Z,63.68
2023-04-11T20:15:36.236Z,63.73
2023-04-11T20:18:28.744Z,63.67
2023-04-11T20:21:21.092Z,63.79
2023-04-11T20:24:13.216Z,63.89
2023-04-11T20:27:05.240Z,64.00
2023-04-11T20:29:57.863Z,64.19
2023-04-11T20:32:49.878Z,64.19
2023-04-11T20:35:41.954Z,64.22
2023-04-11T20:38:34.029Z,64.29
2023-04-11T20:41:26.548Z,64.39
2023-04-11T20:44:07.288Z,64.44
2023-04-11T20:46:59.314Z,64.43
2023-04-11T20:49:56.118Z,64.48
2023-04-11T20:52:34.009Z,64.56
2023-04-11T20:55:22.026Z,64.64
2023-04-11T20:58:17.108Z,64.79
2023-04-11T21:01:09.326Z,64.87
2023-04-11T21:04:02.625Z,64.98
2023-04-11T21:06:40.578Z,64.89
2023-04-11T21:09:22.520Z,64.86
2023-04-11T21:11:59.277Z,65.06
2023-04-11T21:14:51.276Z,65.13
2023-04-11T21:17:43.293Z,65.16
2023-04-11T21:20:35.225Z,65.16
2023-04-11T21:23:27.184Z,65.18
2023-04-11T21:26:19.176Z,65.31
2023-04-11T21:29:01.533Z,65.28
2023-04-11T21:31:53.670Z,65.29
2023-04-11T21:34:45.658Z,65.13
2023-04-11T21:37:20.051Z,65.24
2023-04-11T21:40:13.514Z,65.31
2023-04-11T21:43:06.455Z,65.11
2023-04-11T21:45:58.782Z,65.12
2023-04-11T21:48:51.461Z,65.12
2023-04-11T21:51:43.491Z,65.14
2023-04-11T21:54:24.168Z,65.02
2023-04-11T21:57:16.783Z,64.81
2023-04-11T21:59:49.478Z,64.83
2023-04-11T22:02:30.234Z,64.93
2023-04-11T22:05:22.751Z,64.76
2023-04-11T22:08:14.083Z,64.58
2023-04-11T22:11:09.988Z,64.69
2023-04-11T22:14:02.128Z,64.70
2023-04-11T22:17:03.172Z,64.92
2023-04-11T22:19:58.173Z,64.83
2023-04-11T22:22:50.136Z,64.86
2023-04-11T22:25:43.783Z,64.85
2023-04-11T22:28:35.782Z,64.94
2023-04-11T22:31:30.738Z,64.89
2023-04-11T22:34:22.830Z,64.74
2023-04-11T22:37:14.803Z,64.70
2023-04-11T22:40:08.355Z,64.59
2023-04-11T22:43:01.650Z,64.76
2023-04-11T22:45:53.982Z,64.80
2023-04-11T22:48:30.458Z,64.65
2023-04-11T22:51:25.428Z,64.70
2023-04-11T22:54:17.440Z,65.06
2023-04-11T22:56:55.316Z,65.04
2023-04-11T22:59:47.468Z,65.08
2023-04-11T23:02:23.143Z,65.09
2023-04-11T23:05:16.698Z,65.21
2023-04-11T23:08:09.044Z,65.23
2023-04-11T23:11:01.028Z,65.11
2023-04-11T23:13:45.244Z,64.90
2023-04-11T23:16:37.324Z,65.15
2023-04-11T23:19:30.011Z,65.13
2023-04-11T23:22:22.042Z,65.06
2023-04-11T23:25:15.244Z,64.90
2023-04-11T23:28:08.007Z,65.07
2023-04-11T23:37:20.142Z,65.52
2023-04-11T23:40:14.133Z,65.41
2023-04-11T23:43:06.405Z,65.24
2023-04-11T23:45:58.712Z,65.34
2023-04-11T23:48:50.853Z,65.08
2023-04-11T23:51:43.276Z,65.10
2023-04-11T23:54:35.810Z,65.09
2023-04-11T23:57:28.038Z,65.18
